Dorothy, West Virginia
Current Conditions -  °F | °C
As of 3:59 AM on Monday 22 Dec 2014 (Local Time) from KBKW Reporting Station
Broken Clouds Broken Clouds  
Wind Chill: 27°   Ceiling: 6500
Heat Index: 35°   Visibility: 10mi
Dew Point: 30°   Wind: 12mph
Humidity: 82%   Direction: 140°SE
Pressure: 30.08"   Gusts: NA
Location:  37.95°N, 81.45°W
Report Text: KBKW 220859Z AUTO 14010KT 10SM FEW010 BKN065 02/M01 A3008 RMK AO2 T00171011 $
Loading
Personal Weather Stations






























Interactive Weather Map New forecast layout! Learn more

10-Day Weather Forecast

Advertisements
Track Severe Weather on mobile